Time;durP1;ratioP1;P1;durP2;ratioP2;P2;SDS_P1;SDS_P2;PMS_P1;PMS_P2;Temp;Humidity;BMP_temperature;BMP_pressure;BME280_temperature;BME280_humidity;BME280_pressure;Samples;Min_cycle;Max_cycle;Signal;HPM_P1;HPM_P2
2022/05/26 00:02:04;;;;;;;;;;;;;;;;;;5106645;28;19924;-68
2022/05/26 00:04:29;;;;;;;;;;;;;;;;;;5110284;28;20379;-67
2022/05/26 00:06:56;;;;;;;;;;;;;;;;;;5115226;28;19927;-69
2022/05/26 00:09:22;;;;;;;;;;;;;;;;;;5099321;28;20303;-69
2022/05/26 00:11:48;;;;;;;;;;;;;;;;;;5088129;28;20406;-68
2022/05/26 00:14:13;;;;;;;;;;;;;;;;;;5088031;28;19920;-68
2022/05/26 00:16:42;;;;;;;;;;;;;;;;;;5087002;28;19928;-69
2022/05/26 00:19:08;;;;;;;;;;;;;;;;;;5086063;28;19927;-67
2022/05/26 00:21:34;;;;;;;;;;;;;;;;;;5087523;28;19921;-68
2022/05/26 00:24:00;;;;;;;;;;;;;;;;;;5086644;28;19921;-68
2022/05/26 00:26:26;;;;;;;;;;;;;;;;;;5087079;28;19931;-68
2022/05/26 00:28:52;;;;;;;;;;;;;;;;;;5087346;28;20015;-68
2022/05/26 00:31:18;;;;;;;;;;;;;;;;;;5085707;28;19920;-68
2022/05/26 00:33:44;;;;;;;;;;;;;;;;;;5083870;28;19928;-68
2022/05/26 00:36:10;;;;;;;;;;;;;;;;;;5084602;28;20338;-68
2022/05/26 00:38:36;;;;;;;;;;;;;;;;;;5086825;28;19943;-68
2022/05/26 00:41:02;;;;;;;;;;;;;;;;;;5085765;28;19924;-68
2022/05/26 00:43:28;;;;;;;;;;;;;;;;;;5086313;28;19949;-68
2022/05/26 00:45:54;;;;;;;;;;;;;;;;;;5086212;28;19920;-68
2022/05/26 00:48:20;;;;;;;;;;;;;;;;;;5086915;28;19927;-68
2022/05/26 00:50:46;;;;;;;;;;;;;;;;;;5087414;28;19982;-67
2022/05/26 00:53:12;;;;;;;;;;;;;;;;;;5087651;28;19931;-68
2022/05/26 00:55:38;;;;;;;;;;;;;;;;;;5087364;28;19924;-68
2022/05/26 00:58:04;;;;;;;;;;;;;;;;;;5087363;28;19921;-68
2022/05/26 01:00:30;;;;;;;;;;;;;;;;;;5078374;28;19951;-68
2022/05/26 01:02:56;;;;;;;;;;;;;;;;;;5067090;28;19960;-68
2022/05/26 01:05:22;;;;;;;;;;;;;;;;;;5065902;28;19932;-68
2022/05/26 01:07:48;;;;;;;;;;;;;;;;;;5085751;28;19920;-68
2022/05/26 01:10:14;;;;;;;;;;;;;;;;;;5087053;28;19920;-69
2022/05/26 01:12:40;;;;;;;;;;;;;;;;;;5087076;28;19920;-68
2022/05/26 01:15:06;;;;;;;;;;;;;;;;;;5068665;28;19978;-69
2022/05/26 01:17:32;;;;;;;;;;;;;;;;;;5086819;28;19931;-69
2022/05/26 01:19:58;;;;;;;;;;;;;;;;;;5086887;28;19943;-68
2022/05/26 01:22:24;;;;;;;;;;;;;;;;;;5086959;28;19927;-68
2022/05/26 01:24:50;;;;;;;;;;;;;;;;;;5086736;28;19920;-68
2022/05/26 01:27:16;;;;;;;;;;;;;;;;;;5086676;28;19924;-68
2022/05/26 01:29:42;;;;;;;;;;;;;;;;;;5086818;28;20110;-68
2022/05/26 01:32:08;;;;;;;;;;;;;;;;;;5086881;28;19984;-67
2022/05/26 01:34:34;;;;;;;;;;;;;;;;;;5086564;28;19920;-68
2022/05/26 01:37:00;;;;;;;;;;;;;;;;;;5086496;28;19985;-68
2022/05/26 01:39:26;;;;;;;;;;;;;;;;;;5086622;28;19925;-68
2022/05/26 01:41:52;;;;;;;;;;;;;;;;;;5068545;28;19935;-68
2022/05/26 01:44:18;;;;;;;;;;;;;;;;;;5086643;28;19974;-68
2022/05/26 01:46:44;;;;;;;;;;;;;;;;;;5086560;28;19920;-68
2022/05/26 01:49:10;;;;;;;;;;;;;;;;;;5086530;28;20403;-68
2022/05/26 01:51:36;;;;;;;;;;;;;;;;;;5086264;28;19943;-68
2022/05/26 01:54:02;;;;;;;;;;;;;;;;;;5086247;28;19947;-68
2022/05/26 01:56:28;;;;;;;;;;;;;;;;;;5085892;28;19924;-68
2022/05/26 01:58:54;;;;;;;;;;;;;;;;;;5085935;28;19927;-68
2022/05/26 02:01:20;;;;;;;;;;;;;;;;;;5085783;28;19974;-68
2022/05/26 02:03:46;;;;;;;;;;;;;;;;;;5085592;28;19920;-68
2022/05/26 02:06:12;;;;;;;;;;;;;;;;;;5085599;28;20365;-68
2022/05/26 02:08:38;;;;;;;;;;;;;;;;;;5085838;28;19942;-68
2022/05/26 02:11:04;;;;;;;;;;;;;;;;;;5085651;28;19920;-67
2022/05/26 02:13:30;;;;;;;;;;;;;;;;;;5085470;28;19920;-67
2022/05/26 02:15:56;;;;;;;;;;;;;;;;;;5085575;28;19921;-67
2022/05/26 02:18:22;;;;;;;;;;;;;;;;;;5085482;28;19947;-68
2022/05/26 02:20:48;;;;;;;;;;;;;;;;;;5085635;28;19916;-68
2022/05/26 02:23:14;;;;;;;;;;;;;;;;;;5085508;28;19943;-68
2022/05/26 02:25:40;;;;;;;;;;;;;;;;;;5085303;28;19920;-68
2022/05/26 02:28:06;;;;;;;;;;;;;;;;;;5085496;28;19987;-68
2022/05/26 02:30:32;;;;;;;;;;;;;;;;;;5085649;28;19974;-68
2022/05/26 02:32:58;;;;;;;;;;;;;;;;;;5085281;28;19974;-68
2022/05/26 02:35:24;;;;;;;;;;;;;;;;;;5085195;28;20421;-68
2022/05/26 02:37:50;;;;;;;;;;;;;;;;;;5085402;28;19920;-68
2022/05/26 02:40:16;;;;;;;;;;;;;;;;;;5085211;28;19943;-68
2022/05/26 02:42:42;;;;;;;;;;;;;;;;;;5085030;28;19950;-68
2022/05/26 02:45:08;;;;;;;;;;;;;;;;;;5085057;28;19978;-68
2022/05/26 02:47:34;;;;;;;;;;;;;;;;;;5085302;28;20002;-68
2022/05/26 02:50:00;;;;;;;;;;;;;;;;;;5085292;28;19920;-68
2022/05/26 02:52:26;;;;;;;;;;;;;;;;;;5085140;28;19981;-68
2022/05/26 02:54:53;;;;;;;;;;;;;;;;;;5085243;28;19925;-68
2022/05/26 02:57:19;;;;;;;;;;;;;;;;;;5084932;28;19931;-68
2022/05/26 02:59:45;;;;;;;;;;;;;;;;;;5085163;28;19928;-67
2022/05/26 03:02:11;;;;;;;;;;;;;;;;;;5085091;28;20269;-68
2022/05/26 03:04:37;;;;;;;;;;;;;;;;;;5084802;28;19920;-68
2022/05/26 03:07:03;;;;;;;;;;;;;;;;;;5084956;28;19963;-68
2022/05/26 03:09:29;;;;;;;;;;;;;;;;;;5084771;28;20011;-68
2022/05/26 03:11:55;;;;;;;;;;;;;;;;;;5084696;28;20332;-68
2022/05/26 03:14:21;;;;;;;;;;;;;;;;;;5084741;28;19920;-69
2022/05/26 03:16:47;;;;;;;;;;;;;;;;;;5084841;28;19928;-68
2022/05/26 03:19:13;;;;;;;;;;;;;;;;;;5084722;28;19924;-68
2022/05/26 03:21:39;;;;;;;;;;;;;;;;;;5084725;28;20403;-68
2022/05/26 03:24:05;;;;;;;;;;;;;;;;;;5066707;28;19921;-67
2022/05/26 03:26:31;;;;;;;;;;;;;;;;;;5100170;28;19979;-67
2022/05/26 03:28:57;;;;;;;;;;;;;;;;;;5086005;28;19967;-68
2022/05/26 03:31:23;;;;;;;;;;;;;;;;;;5088637;28;19926;-68
2022/05/26 03:42:02;;;;;;;;;;;;;;;;;;5088494;28;19931;-68
2022/05/26 03:44:28;;;;;;;;;;;;;;;;;;5088728;28;19920;-68
2022/05/26 03:46:54;;;;;;;;;;;;;;;;;;5088614;28;19978;-67
2022/05/26 03:49:20;;;;;;;;;;;;;;;;;;5088549;28;19925;-68
2022/05/26 03:51:46;;;;;;;;;;;;;;;;;;5088393;28;19921;-68
2022/05/26 03:54:12;;;;;;;;;;;;;;;;;;5088548;28;19936;-68
2022/05/26 03:56:38;;;;;;;;;;;;;;;;;;5088313;28;19921;-68
2022/05/26 03:59:05;;;;;;;;;;;;;;;;;;5088263;28;19924;-68
2022/05/26 04:01:31;;;;;;;;;;;;;;;;;;5088285;28;19967;-68
2022/05/26 04:03:57;;;;;;;;;;;;;;;;;;5087951;28;19921;-67
2022/05/26 04:06:23;;;;;;;;;;;;;;;;;;5088063;28;19920;-68
2022/05/26 04:08:49;;;;;;;;;;;;;;;;;;5088235;28;19920;-68
2022/05/26 04:11:15;;;;;;;;;;;;;;;;;;5087848;28;19920;-68
2022/05/26 04:13:41;;;;;;;;;;;;;;;;;;5088069;28;19931;-68
2022/05/26 04:16:07;;;;;;;;;;;;;;;;;;5088135;28;19920;-68
2022/05/26 04:18:33;;;;;;;;;;;;;;;;;;5087917;28;20041;-68
2022/05/26 04:20:59;;;;;;;;;;;;;;;;;;5087874;28;19917;-68
2022/05/26 04:23:24;;;;;;;;;;;;;;;;;;5087975;28;20011;-68
2022/05/26 04:25:50;;;;;;;;;;;;;;;;;;5103477;28;19920;-68
2022/05/26 04:28:16;;;;;;;;;;;;;;;;;;5087767;28;19975;-68
2022/05/26 04:30:42;;;;;;;;;;;;;;;;;;5087805;28;19924;-67
2022/05/26 04:33:08;;;;;;;;;;;;;;;;;;5087618;28;19921;-68
2022/05/26 04:35:34;;;;;;;;;;;;;;;;;;5087598;28;19920;-68
2022/05/26 04:38:00;;;;;;;;;;;;;;;;;;5087575;28;19920;-69
2022/05/26 04:40:26;;;;;;;;;;;;;;;;;;5087340;28;19920;-68
2022/05/26 04:42:53;;;;;;;;;;;;;;;;;;5087386;28;19925;-68
2022/05/26 04:45:19;;;;;;;;;;;;;;;;;;5087473;28;19975;-69
2022/05/26 04:47:45;;;;;;;;;;;;;;;;;;5087371;28;19921;-68
2022/05/26 04:50:11;;;;;;;;;;;;;;;;;;5087237;28;19927;-68
2022/05/26 04:52:37;;;;;;;;;;;;;;;;;;5087176;28;19943;-68
2022/05/26 04:55:04;;;;;;;;;;;;;;;;;;5069215;28;20368;-68
2022/05/26 04:57:30;;;;;;;;;;;;;;;;;;5087205;28;20651;-68
2022/05/26 04:59:56;;;;;;;;;;;;;;;;;;5087153;28;20565;-69
2022/05/26 05:02:22;;;;;;;;;;;;;;;;;;5087135;28;20141;-68
2022/05/26 05:04:48;;;;;;;;;;;;;;;;;;5086885;28;20071;-68
2022/05/26 05:07:15;;;;;;;;;;;;;;;;;;5086918;28;20295;-69
2022/05/26 05:09:41;;;;;;;;;;;;;;;;;;5087224;28;19974;-68
2022/05/26 05:12:07;;;;;;;;;;;;;;;;;;5086882;28;19924;-68
2022/05/26 05:14:33;;;;;;;;;;;;;;;;;;5086917;28;19920;-68
2022/05/26 05:16:59;;;;;;;;;;;;;;;;;;5102514;28;19960;-68
2022/05/26 05:19:25;;;;;;;;;;;;;;;;;;5086859;28;19964;-69
2022/05/26 05:21:51;;;;;;;;;;;;;;;;;;5086818;28;19920;-68
2022/05/26 05:24:17;;;;;;;;;;;;;;;;;;5086842;28;19986;-68
2022/05/26 05:26:45;;;;;;;;;;;;;;;;;;5086583;28;19920;-68
2022/05/26 05:29:11;;;;;;;;;;;;;;;;;;5086691;28;20007;-69
2022/05/26 05:31:37;;;;;;;;;;;;;;;;;;5086563;28;19921;-68
2022/05/26 05:34:03;;;;;;;;;;;;;;;;;;5086431;28;20372;-68
2022/05/26 05:36:29;;;;;;;;;;;;;;;;;;5086537;28;19925;-68
2022/05/26 05:38:55;;;;;;;;;;;;;;;;;;5086445;28;19927;-68
2022/05/26 05:41:21;;;;;;;;;;;;;;;;;;5086265;28;19924;-68
2022/05/26 05:43:47;;;;;;;;;;;;;;;;;;5086530;28;19921;-69
2022/05/26 05:46:14;;;;;;;;;;;;;;;;;;5086352;28;19965;-69
2022/05/26 05:48:43;;;;;;;;;;;;;;;;;;5086159;28;20391;-68
2022/05/26 05:51:09;;;;;;;;;;;;;;;;;;5085675;28;19935;-69
2022/05/26 05:53:35;;;;;;;;;;;;;;;;;;5086204;28;19920;-69
2022/05/26 05:56:01;;;;;;;;;;;;;;;;;;5101498;28;19920;-68
2022/05/26 05:58:27;;;;;;;;;;;;;;;;;;5086155;28;19936;-69
2022/05/26 06:00:53;;;;;;;;;;;;;;;;;;5085975;28;19935;-69
2022/05/26 06:03:19;;;;;;;;;;;;;;;;;;5086225;28;19920;-69
2022/05/26 06:05:45;;;;;;;;;;;;;;;;;;5085840;28;19925;-68
2022/05/26 06:08:11;;;;;;;;;;;;;;;;;;5086023;28;19927;-69
2022/05/26 06:10:37;;;;;;;;;;;;;;;;;;5085523;28;20293;-69
2022/05/26 06:13:03;;;;;;;;;;;;;;;;;;5101468;28;20330;-69
2022/05/26 06:15:29;;;;;;;;;;;;;;;;;;5085772;28;20004;-69
2022/05/26 06:17:55;;;;;;;;;;;;;;;;;;5085733;28;19976;-69
2022/05/26 06:20:21;;;;;;;;;;;;;;;;;;5085833;28;19920;-70
2022/05/26 06:22:47;;;;;;;;;;;;;;;;;;5085915;28;19920;-69
2022/05/26 06:25:13;;;;;;;;;;;;;;;;;;5101115;28;19920;-69
2022/05/26 06:30:26;;;;;;;;;;;;;;;;;;5085587;28;19946;-70
2022/05/26 06:38:21;;;;;;;;;;;;;;;;;;5085339;28;19926;-70
2022/05/26 06:40:47;;;;;;;;;;;;;;;;;;5085055;28;19971;-70
2022/05/26 06:43:14;;;;;;;;;;;;;;;;;;5100703;28;19983;-70
2022/05/26 06:45:40;;;;;;;;;;;;;;;;;;5085476;28;19928;-70
2022/05/26 06:48:06;;;;;;;;;;;;;;;;;;5085265;28;19927;-70
2022/05/26 06:50:32;;;;;;;;;;;;;;;;;;5085242;28;19924;-71
2022/05/26 06:52:58;;;;;;;;;;;;;;;;;;5085260;28;19920;-69
2022/05/26 06:55:24;;;;;;;;;;;;;;;;;;5084931;28;19920;-69
2022/05/26 06:57:51;;;;;;;;;;;;;;;;;;5085223;28;19920;-70
2022/05/26 07:00:18;;;;;;;;;;;;;;;;;;5085222;28;19983;-70
2022/05/26 07:02:44;;;;;;;;;;;;;;;;;;5084341;28;19975;-70
2022/05/26 07:05:11;;;;;;;;;;;;;;;;;;5084661;28;19935;-70
2022/05/26 07:07:37;;;;;;;;;;;;;;;;;;5100647;28;20439;-70
2022/05/26 07:10:03;;;;;;;;;;;;;;;;;;5084987;28;19942;-69
2022/05/26 07:12:29;;;;;;;;;;;;;;;;;;5084730;28;19951;-70
2022/05/26 07:14:55;;;;;;;;;;;;;;;;;;5085024;28;20007;-71
2022/05/26 07:17:21;;;;;;;;;;;;;;;;;;5084849;28;19924;-70
2022/05/26 07:19:47;;;;;;;;;;;;;;;;;;5084714;28;19931;-69
2022/05/26 07:22:16;;;;;;;;;;;;;;;;;;5084833;28;19976;-70
2022/05/26 07:24:42;;;;;;;;;;;;;;;;;;5100434;28;19980;-70
2022/05/26 07:27:08;;;;;;;;;;;;;;;;;;5084691;28;20394;-70
2022/05/26 07:29:34;;;;;;;;;;;;;;;;;;5066786;28;19932;-70
2022/05/26 07:32:01;;;;;;;;;;;;;;;;;;5100259;28;19921;-69
2022/05/26 07:34:27;;;;;;;;;;;;;;;;;;5084762;28;19924;-70
2022/05/26 07:42:22;;;;;;;;;;;;;;;;;;5084385;28;19987;-69
2022/05/26 07:44:49;;;;;;;;;;;;;;;;;;5084582;28;19982;-70
2022/05/26 07:47:15;;;;;;;;;;;;;;;;;;5084699;28;19921;-70
2022/05/26 07:49:41;;;;;;;;;;;;;;;;;;5084496;28;19926;-71
2022/05/26 07:52:07;;;;;;;;;;;;;;;;;;5090218;28;19920;-70
2022/05/26 07:54:33;;;;;;;;;;;;;;;;;;5114547;28;19944;-70
2022/05/26 07:56:59;;;;;;;;;;;;;;;;;;5112588;28;19920;-70
2022/05/26 07:59:25;;;;;;;;;;;;;;;;;;5109164;28;19950;-70
2022/05/26 08:01:51;;;;;;;;;;;;;;;;;;5109286;28;19919;-70
2022/05/26 08:04:17;;;;;;;;;;;;;;;;;;5104346;28;19927;-69
2022/05/26 08:06:46;;;;;;;;;;;;;;;;;;5119563;28;19920;-70
2022/05/26 08:09:12;;;;;;;;;;;;;;;;;;5113878;28;20532;-70
2022/05/26 08:11:38;;;;;;;;;;;;;;;;;;5104212;28;20011;-70
2022/05/26 08:14:04;;;;;;;;;;;;;;;;;;5086346;28;19920;-70
2022/05/26 08:16:31;;;;;;;;;;;;;;;;;;5098624;28;19927;-70
2022/05/26 08:18:57;;;;;;;;;;;;;;;;;;5110923;28;19919;-70
2022/05/26 08:21:23;;;;;;;;;;;;;;;;;;5108086;28;19923;-70
2022/05/26 08:23:49;;;;;;;;;;;;;;;;;;5108089;28;19927;-70
2022/05/26 08:26:15;;;;;;;;;;;;;;;;;;5085346;28;19981;-70
2022/05/26 08:28:42;;;;;;;;;;;;;;;;;;5106960;28;19927;-70
2022/05/26 08:31:09;;;;;;;;;;;;;;;;;;5111851;28;19920;-69
2022/05/26 08:33:36;;;;;;;;;;;;;;;;;;5110259;28;19983;-70
2022/05/26 08:36:02;;;;;;;;;;;;;;;;;;5107268;28;19930;-70
2022/05/26 08:38:28;;;;;;;;;;;;;;;;;;5117731;28;19923;-72
2022/05/26 08:40:54;;;;;;;;;;;;;;;;;;5090051;28;19927;-71
2022/05/26 08:43:20;;;;;;;;;;;;;;;;;;5110066;28;19919;-71
2022/05/26 08:45:46;;;;;;;;;;;;;;;;;;5128523;28;20404;-71
2022/05/26 08:48:12;;;;;;;;;;;;;;;;;;5110062;28;19931;-70
2022/05/26 08:50:40;;;;;;;;;;;;;;;;;;5115140;28;19927;-70
2022/05/26 08:53:06;;;;;;;;;;;;;;;;;;5106885;28;19920;-71
2022/05/26 08:55:32;;;;;;;;;;;;;;;;;;5105121;28;20002;-71
2022/05/26 08:57:58;;;;;;;;;;;;;;;;;;5104718;28;19920;-71
2022/05/26 09:00:24;;;;;;;;;;;;;;;;;;5105515;28;19920;-71
2022/05/26 09:02:53;;;;;;;;;;;;;;;;;;5098455;28;19928;-71
2022/05/26 09:05:19;;;;;;;;;;;;;;;;;;5089191;28;19935;-71
2022/05/26 09:13:14;;;;;;;;;;;;;;;;;;5116733;28;20006;-71
2022/05/26 09:15:40;;;;;;;;;;;;;;;;;;5115143;28;19920;-70
2022/05/26 09:18:06;;;;;;;;;;;;;;;;;;5122649;27;19924;-71
2022/05/26 09:20:32;;;;;;;;;;;;;;;;;;5108626;28;20375;-70
2022/05/26 09:22:58;;;;;;;;;;;;;;;;;;5108436;28;19927;-70
2022/05/26 09:25:24;;;;;;;;;;;;;;;;;;5107491;28;19919;-70
2022/05/26 09:27:50;;;;;;;;;;;;;;;;;;5109628;28;19955;-70
2022/05/26 09:30:16;;;;;;;;;;;;;;;;;;5127803;27;20043;-70
2022/05/26 09:32:42;;;;;;;;;;;;;;;;;;5107323;28;19943;-70
2022/05/26 09:35:08;;;;;;;;;;;;;;;;;;5110352;28;19959;-70
2022/05/26 09:37:34;;;;;;;;;;;;;;;;;;5110767;28;19980;-70
2022/05/26 09:40:00;;;;;;;;;;;;;;;;;;5111075;28;19920;-70
2022/05/26 09:42:27;;;;;;;;;;;;;;;;;;5109491;28;20008;-70
2022/05/26 09:44:53;;;;;;;;;;;;;;;;;;5108770;28;20284;-69
2022/05/26 09:47:20;;;;;;;;;;;;;;;;;;5107641;28;19935;-70
2022/05/26 09:49:46;;;;;;;;;;;;;;;;;;5115297;28;19920;-70
2022/05/26 09:52:13;;;;;;;;;;;;;;;;;;5120393;28;20663;-70
2022/05/26 09:54:39;;;;;;;;;;;;;;;;;;5105201;28;19920;-70
2022/05/26 09:57:05;;;;;;;;;;;;;;;;;;5115102;28;19936;-70
2022/05/26 09:59:31;;;;;;;;;;;;;;;;;;5098579;28;19927;-69
2022/05/26 10:01:57;;;;;;;;;;;;;;;;;;5096185;28;19971;-70
2022/05/26 10:04:23;;;;;;;;;;;;;;;;;;5104437;28;19920;-70
2022/05/26 10:06:49;;;;;;;;;;;;;;;;;;5114678;28;19927;-70
2022/05/26 10:09:15;;;;;;;;;;;;;;;;;;5130879;27;19942;-70
2022/05/26 10:11:41;;;;;;;;;;;;;;;;;;5097803;28;19920;-70
2022/05/26 10:14:07;;;;;;;;;;;;;;;;;;5100373;28;19920;-70
2022/05/26 10:16:33;;;;;;;;;;;;;;;;;;5081329;28;20383;-62
2022/05/26 10:18:59;;;;;;;;;;;;;;;;;;5104158;28;19920;-74
2022/05/26 10:21:25;;;;;;;;;;;;;;;;;;5083748;28;19986;-71
2022/05/26 10:23:51;;;;;;;;;;;;;;;;;;5125010;27;19966;-69
2022/05/26 10:26:17;;;;;;;;;;;;;;;;;;5106202;28;19920;-66
2022/05/26 10:28:43;;;;;;;;;;;;;;;;;;5106089;28;19946;-69
2022/05/26 10:31:09;;;;;;;;;;;;;;;;;;5107696;28;19927;-68
2022/05/26 10:33:35;;;;;;;;;;;;;;;;;;5105114;28;19920;-71
2022/05/26 10:36:01;;;;;;;;;;;;;;;;;;5086332;28;19989;-66
2022/05/26 10:38:27;;;;;;;;;;;;;;;;;;5108098;28;19923;-70
2022/05/26 10:40:53;;;;;;;;;;;;;;;;;;5099977;28;19939;-68
2022/05/26 10:43:20;;;;;;;;;;;;;;;;;;5104957;28;19920;-66
2022/05/26 10:45:47;;;;;;;;;;;;;;;;;;5121071;27;19927;-69
2022/05/26 10:48:13;;;;;;;;;;;;;;;;;;5105217;28;19920;-70
2022/05/26 10:50:39;;;;;;;;;;;;;;;;;;5086617;28;19927;-69
2022/05/26 10:53:05;;;;;;;;;;;;;;;;;;5090894;28;19920;-67
2022/05/26 10:55:31;;;;;;;;;;;;;;;;;;5114966;28;19920;-69
2022/05/26 10:57:57;;;;;;;;;;;;;;;;;;5106872;28;19920;-68
2022/05/26 11:00:23;;;;;;;;;;;;;;;;;;5109740;28;19920;-67
2022/05/26 11:02:49;;;;;;;;;;;;;;;;;;5103861;28;19951;-68
2022/05/26 11:05:17;;;;;;;;;;;;;;;;;;5111800;28;19927;-66
2022/05/26 11:07:43;;;;;;;;;;;;;;;;;;5107306;28;19923;-67
2022/05/26 11:10:09;;;;;;;;;;;;;;;;;;5106489;28;19920;-67
2022/05/26 11:12:35;;;;;;;;;;;;;;;;;;5108558;28;19920;-76
2022/05/26 11:17:46;;;;;;;;;;;;;;;;;;5118145;28;20061;-70
2022/05/26 11:20:13;;;;;;;;;;;;;;;;;;5108850;28;19924;-70
2022/05/26 11:22:41;;;;;;;;;;;;;;;;;;5125480;28;19930;-69
2022/05/26 11:25:07;;;;;;;;;;;;;;;;;;5105787;28;19959;-78
2022/05/26 11:27:33;;;;;;;;;;;;;;;;;;5104921;28;19935;-70
2022/05/26 11:29:59;;;;;;;;;;;;;;;;;;5109854;28;19928;-67
2022/05/26 11:37:54;;;;;;;;;;;;;;;;;;5108540;28;19935;-71
2022/05/26 11:40:20;;;;;;;;;;;;;;;;;;5127597;28;19920;-77
2022/05/26 11:42:46;;;;;;;;;;;;;;;;;;5124088;28;20303;-73
2022/05/26 11:45:12;;;;;;;;;;;;;;;;;;5105553;28;19924;-71
2022/05/26 11:47:38;;;;;;;;;;;;;;;;;;5107446;28;19920;-73
2022/05/26 11:50:04;;;;;;;;;;;;;;;;;;5107208;28;20017;-75
2022/05/26 11:52:30;;;;;;;;;;;;;;;;;;5110254;28;19920;-74
2022/05/26 11:54:58;;;;;;;;;;;;;;;;;;5118226;28;19927;-71
2022/05/26 11:57:24;;;;;;;;;;;;;;;;;;5134501;27;19919;-73
2022/05/26 11:59:51;;;;;;;;;;;;;;;;;;5091434;28;19921;-73
2022/05/26 12:02:17;;;;;;;;;;;;;;;;;;5090458;28;19927;-73
2022/05/26 12:04:42;;;;;;;;;;;;;;;;;;5108016;28;19924;-72
2022/05/26 12:07:08;;;;;;;;;;;;;;;;;;5109889;28;19924;-72
2022/05/26 12:09:35;;;;;;;;;;;;;;;;;;5108580;28;19931;-72
2022/05/26 12:12:01;;;;;;;;;;;;;;;;;;5112666;28;19927;-72
2022/05/26 12:14:27;;;;;;;;;;;;;;;;;;5107450;28;19959;-68
2022/05/26 12:16:54;;;;;;;;;;;;;;;;;;5117106;27;19928;-72
2022/05/26 12:19:20;;;;;;;;;;;;;;;;;;5117061;28;19927;-73
2022/05/26 12:21:46;;;;;;;;;;;;;;;;;;5125149;27;19920;-69
2022/05/26 12:24:12;;;;;;;;;;;;;;;;;;5107540;28;19923;-70
2022/05/26 12:26:38;;;;;;;;;;;;;;;;;;5112306;28;20010;-74
2022/05/26 12:29:04;;;;;;;;;;;;;;;;;;5123398;28;19920;-68
2022/05/26 12:31:30;;;;;;;;;;;;;;;;;;5116758;28;19938;-68
2022/05/26 12:33:56;;;;;;;;;;;;;;;;;;5114368;28;19946;-74
2022/05/26 12:36:22;;;;;;;;;;;;;;;;;;5111839;28;19953;-70
2022/05/26 12:38:49;;;;;;;;;;;;;;;;;;5093740;28;19966;-74
2022/05/26 12:41:15;;;;;;;;;;;;;;;;;;5127814;27;19943;-75
2022/05/26 12:43:41;;;;;;;;;;;;;;;;;;5105338;28;20414;-69
2022/05/26 12:46:07;;;;;;;;;;;;;;;;;;5110549;28;19920;-71
2022/05/26 12:48:33;;;;;;;;;;;;;;;;;;5109333;28;19920;-64
2022/05/26 12:50:59;;;;;;;;;;;;;;;;;;5107179;28;19998;-65
2022/05/26 12:53:25;;;;;;;;;;;;;;;;;;5109714;28;19950;-69
2022/05/26 12:55:51;;;;;;;;;;;;;;;;;;5125629;27;19926;-69
2022/05/26 12:58:17;;;;;;;;;;;;;;;;;;5109872;28;20007;-70
2022/05/26 13:00:43;;;;;;;;;;;;;;;;;;5102544;28;19943;-69
2022/05/26 13:03:09;;;;;;;;;;;;;;;;;;5101895;28;19927;-69
2022/05/26 13:05:35;;;;;;;;;;;;;;;;;;5107211;28;19920;-71
2022/05/26 13:08:01;;;;;;;;;;;;;;;;;;5107732;28;19942;-71
2022/05/26 13:10:27;;;;;;;;;;;;;;;;;;5091417;28;19923;-64
2022/05/26 13:12:53;;;;;;;;;;;;;;;;;;5112929;28;20038;-65
2022/05/26 13:15:19;;;;;;;;;;;;;;;;;;5111962;28;19927;-72
2022/05/26 13:17:46;;;;;;;;;;;;;;;;;;5100545;28;19927;-69
2022/05/26 13:20:12;;;;;;;;;;;;;;;;;;5107458;28;19924;-69
2022/05/26 13:22:38;;;;;;;;;;;;;;;;;;5122704;28;20002;-68
2022/05/26 13:25:04;;;;;;;;;;;;;;;;;;5088625;28;19976;-68
2022/05/26 13:27:30;;;;;;;;;;;;;;;;;;5110003;28;20371;-70
2022/05/26 13:33:07;;;;;;;;;;;;;;;;;;5090536;28;19942;-68
2022/05/26 13:35:30;;;;;;;;;;;;;;;;;;5112589;28;19981;-70
2022/05/26 13:37:56;;;;;;;;;;;;;;;;;;5109330;28;19975;-73
2022/05/26 13:40:22;;;;;;;;;;;;;;;;;;5107007;28;20022;-67
2022/05/26 13:42:48;;;;;;;;;;;;;;;;;;5109579;28;20364;-75
2022/05/26 13:45:14;;;;;;;;;;;;;;;;;;5109716;28;19927;-69
2022/05/26 13:47:40;;;;;;;;;;;;;;;;;;5105236;28;19963;-66
2022/05/26 13:50:06;;;;;;;;;;;;;;;;;;5125043;27;20280;-68
2022/05/26 13:52:32;;;;;;;;;;;;;;;;;;5101743;28;19954;-66
2022/05/26 13:54:58;;;;;;;;;;;;;;;;;;5109508;28;20919;-62
2022/05/26 13:57:24;;;;;;;;;;;;;;;;;;5106025;28;19920;-65
2022/05/26 13:59:50;;;;;;;;;;;;;;;;;;5106537;28;19983;-73
2022/05/26 14:02:16;;;;;;;;;;;;;;;;;;5107759;28;20034;-69
2022/05/26 14:04:42;;;;;;;;;;;;;;;;;;5110039;28;19923;-70
2022/05/26 14:07:08;;;;;;;;;;;;;;;;;;5122780;27;19920;-70
2022/05/26 14:09:37;;;;;;;;;;;;;;;;;;5107626;28;20260;-68
2022/05/26 14:12:06;;;;;;;;;;;;;;;;;;5104077;28;19920;-66
2022/05/26 14:14:32;;;;;;;;;;;;;;;;;;5106599;28;19931;-66
2022/05/26 14:16:58;;;;;;;;;;;;;;;;;;5106138;28;19920;-71
2022/05/26 14:19:24;;;;;;;;;;;;;;;;;;5111492;28;19920;-68
2022/05/26 14:21:50;;;;;;;;;;;;;;;;;;5106171;28;19924;-67
2022/05/26 14:24:16;;;;;;;;;;;;;;;;;;5106071;28;19920;-68
2022/05/26 14:26:44;;;;;;;;;;;;;;;;;;5103225;28;19920;-70
2022/05/26 14:29:10;;;;;;;;;;;;;;;;;;5118031;27;20010;-72
2022/05/26 14:31:36;;;;;;;;;;;;;;;;;;5106714;28;19920;-74
2022/05/26 14:34:02;;;;;;;;;;;;;;;;;;5099023;28;19924;-66
2022/05/26 14:36:28;;;;;;;;;;;;;;;;;;5108773;28;19966;-64
2022/05/26 14:38:54;;;;;;;;;;;;;;;;;;5108952;28;20435;-68
2022/05/26 14:41:20;;;;;;;;;;;;;;;;;;5124312;27;19942;-68
2022/05/26 14:43:46;;;;;;;;;;;;;;;;;;5119851;27;19928;-76
2022/05/26 14:46:12;;;;;;;;;;;;;;;;;;5109836;28;19924;-68
2022/05/26 14:48:38;;;;;;;;;;;;;;;;;;5087472;28;19942;-69
2022/05/26 14:51:04;;;;;;;;;;;;;;;;;;5110443;28;19920;-67
2022/05/26 14:56:16;;;;;;;;;;;;;;;;;;5104945;28;19927;-68
2022/05/26 14:58:42;;;;;;;;;;;;;;;;;;5105084;28;19924;-70
2022/05/26 15:01:08;;;;;;;;;;;;;;;;;;5119844;28;19919;-67
2022/05/26 15:03:34;;;;;;;;;;;;;;;;;;5105072;28;20007;-67
2022/05/26 15:06:00;;;;;;;;;;;;;;;;;;5107645;28;19955;-71
2022/05/26 15:08:26;;;;;;;;;;;;;;;;;;5107049;28;19951;-68
2022/05/26 15:10:52;;;;;;;;;;;;;;;;;;5107540;28;19987;-68
2022/05/26 15:13:18;;;;;;;;;;;;;;;;;;5112160;28;19927;-68
2022/05/26 15:15:44;;;;;;;;;;;;;;;;;;5108112;28;19927;-72
2022/05/26 15:18:10;;;;;;;;;;;;;;;;;;5116284;28;19920;-68
2022/05/26 15:20:36;;;;;;;;;;;;;;;;;;5111144;28;20311;-66
2022/05/26 15:23:02;;;;;;;;;;;;;;;;;;5105209;28;20411;-66
2022/05/26 15:25:28;;;;;;;;;;;;;;;;;;5101149;28;20306;-67
2022/05/26 15:27:57;;;;;;;;;;;;;;;;;;5104710;28;19920;-66
2022/05/26 15:30:23;;;;;;;;;;;;;;;;;;5105158;28;19919;-66
2022/05/26 15:32:49;;;;;;;;;;;;;;;;;;5104869;28;19967;-66
2022/05/26 15:35:15;;;;;;;;;;;;;;;;;;5104906;28;19924;-66
2022/05/26 15:37:41;;;;;;;;;;;;;;;;;;5105053;28;20391;-66
2022/05/26 15:40:07;;;;;;;;;;;;;;;;;;5103540;28;19924;-66
2022/05/26 15:42:33;;;;;;;;;;;;;;;;;;5104819;28;19931;-66
2022/05/26 15:44:59;;;;;;;;;;;;;;;;;;5105029;28;19920;-67
2022/05/26 15:47:27;;;;;;;;;;;;;;;;;;5119355;28;19920;-66
2022/05/26 15:49:53;;;;;;;;;;;;;;;;;;5101498;28;19928;-66
2022/05/26 15:52:19;;;;;;;;;;;;;;;;;;5104076;28;19926;-66
2022/05/26 15:54:45;;;;;;;;;;;;;;;;;;5101666;28;19924;-66
2022/05/26 15:57:11;;;;;;;;;;;;;;;;;;5101380;28;21249;-66
2022/05/26 15:59:37;;;;;;;;;;;;;;;;;;5101230;28;19920;-66
2022/05/26 16:02:04;;;;;;;;;;;;;;;;;;5099030;28;19935;-66
2022/05/26 16:04:29;;;;;;;;;;;;;;;;;;5097177;28;19931;-66
2022/05/26 16:06:55;;;;;;;;;;;;;;;;;;5104167;28;19919;-67
2022/05/26 16:09:22;;;;;;;;;;;;;;;;;;5098884;28;19942;-66
2022/05/26 16:11:48;;;;;;;;;;;;;;;;;;5103547;28;19920;-67
2022/05/26 16:14:14;;;;;;;;;;;;;;;;;;5104253;28;19927;-66
2022/05/26 16:16:40;;;;;;;;;;;;;;;;;;5103689;28;19920;-66
2022/05/26 16:19:06;;;;;;;;;;;;;;;;;;5107443;28;19983;-66
2022/05/26 16:21:32;;;;;;;;;;;;;;;;;;5125763;28;20398;-65
2022/05/26 16:23:58;;;;;;;;;;;;;;;;;;5104801;28;20666;-66
2022/05/26 16:26:24;;;;;;;;;;;;;;;;;;5125927;28;19932;-67
2022/05/26 16:28:50;;;;;;;;;;;;;;;;;;5107514;28;20039;-66
2022/05/26 16:31:16;;;;;;;;;;;;;;;;;;5105982;28;19928;-66
2022/05/26 16:33:42;;;;;;;;;;;;;;;;;;5124731;28;19928;-66
2022/05/26 16:38:54;;;;;;;;;;;;;;;;;;5111670;28;19989;-66
2022/05/26 16:41:20;;;;;;;;;;;;;;;;;;5111418;28;20330;-66
2022/05/26 16:43:46;;;;;;;;;;;;;;;;;;5113080;28;19927;-66
2022/05/26 16:46:12;;;;;;;;;;;;;;;;;;5114996;28;19928;-67
2022/05/26 16:48:38;;;;;;;;;;;;;;;;;;5115172;28;19971;-66
2022/05/26 16:51:04;;;;;;;;;;;;;;;;;;5114640;28;20031;-67
2022/05/26 16:53:30;;;;;;;;;;;;;;;;;;5113385;28;19989;-66
2022/05/26 16:55:56;;;;;;;;;;;;;;;;;;5108988;28;19924;-66
2022/05/26 16:58:22;;;;;;;;;;;;;;;;;;5105544;28;19930;-66
2022/05/26 17:00:48;;;;;;;;;;;;;;;;;;5105469;28;19924;-66
2022/05/26 17:03:14;;;;;;;;;;;;;;;;;;5087631;28;19938;-65
2022/05/26 17:05:41;;;;;;;;;;;;;;;;;;5106121;28;19920;-65
2022/05/26 17:08:07;;;;;;;;;;;;;;;;;;5105530;28;19920;-65
2022/05/26 17:10:33;;;;;;;;;;;;;;;;;;5104817;28;19959;-66
2022/05/26 17:21:13;;;;;;;;;;;;;;;;;;5098348;28;19941;-66
2022/05/26 17:23:39;;;;;;;;;;;;;;;;;;5107014;28;19959;-66
2022/05/26 17:26:05;;;;;;;;;;;;;;;;;;5107216;28;19970;-66
2022/05/26 17:28:31;;;;;;;;;;;;;;;;;;5095627;28;19920;-65
2022/05/26 17:30:57;;;;;;;;;;;;;;;;;;5086842;28;19920;-65